createdAt,value
2019-04-27T00:01:27.722Z,4.23
2019-04-27T00:04:16.249Z,3.27
2019-04-27T00:06:46.439Z,3.27
2019-04-27T00:09:14.476Z,4.63
2019-04-27T00:11:46.038Z,4.50
2019-04-27T00:14:14.955Z,3.53
2019-04-27T00:16:53.611Z,4.03
2019-04-27T00:19:31.672Z,3.80
2019-04-27T00:22:14.722Z,3.87
2019-04-27T00:24:41.413Z,3.23
2019-04-27T00:27:08.378Z,4.10
2019-04-27T00:29:35.363Z,3.37
2019-04-27T00:32:04.230Z,3.47
2019-04-27T00:34:31.523Z,3.90
2019-04-27T00:37:00.157Z,3.73
2019-04-27T00:39:34.945Z,3.60
2019-04-27T00:42:03.288Z,4.10
2019-04-27T00:44:30.346Z,3.10
2019-04-27T00:46:56.999Z,3.70
2019-04-27T00:49:23.921Z,4.33
2019-04-27T00:51:50.546Z,3.73
2019-04-27T00:54:17.269Z,3.13
2019-04-27T00:56:54.833Z,3.60
2019-04-27T00:59:23.899Z,4.73
2019-04-27T01:02:09.390Z,3.20
2019-04-27T01:04:37.256Z,4.10
2019-04-27T01:07:04.546Z,3.93
2019-04-27T01:09:31.279Z,3.33
2019-04-27T01:11:58.140Z,3.30
2019-04-27T01:14:24.949Z,3.33
2019-04-27T01:16:51.641Z,2.73
2019-04-27T01:19:19.056Z,3.53
2019-04-27T01:21:45.991Z,2.63
2019-04-27T01:24:12.670Z,3.60
2019-04-27T01:26:43.942Z,4.20
2019-04-27T01:29:12.454Z,3.97
2019-04-27T01:31:39.723Z,2.73
2019-04-27T01:34:06.566Z,3.97
2019-04-27T01:36:33.151Z,4.10
2019-04-27T01:38:59.824Z,3.20
2019-04-27T01:41:26.517Z,2.87
2019-04-27T01:43:53.362Z,2.83
2019-04-27T01:46:20.212Z,3.97
2019-04-27T01:48:46.854Z,4.03
2019-04-27T01:51:13.516Z,3.73
2019-04-27T01:53:40.148Z,2.90
2019-04-27T01:56:09.068Z,4.20
2019-04-27T01:58:36.209Z,3.10
2019-04-27T02:01:09.623Z,3.53
2019-04-27T02:03:41.164Z,3.57
2019-04-27T02:06:09.210Z,3.63
2019-04-27T02:08:36.148Z,3.70
2019-04-27T02:11:02.916Z,3.67
2019-04-27T02:13:29.544Z,3.83
2019-04-27T02:15:56.397Z,3.87
2019-04-27T02:18:34.693Z,3.07
2019-04-27T02:20:52.413Z,4.43
2019-04-27T02:23:19.308Z,4.50
2019-04-27T02:25:46.225Z,4.07
2019-04-27T02:28:14.991Z,5.07
2019-04-27T02:30:43.631Z,6.00
2019-04-27T02:33:29.922Z,4.33
2019-04-27T02:35:55.769Z,4.63
2019-04-27T02:38:22.457Z,5.23
2019-04-27T02:40:52.510Z,5.47
2019-04-27T02:43:21.535Z,4.70
2019-04-27T02:45:50.300Z,4.80
2019-04-27T02:48:19.701Z,3.70
2019-04-27T02:50:49.948Z,3.80
2019-04-27T02:53:16.397Z,4.47
2019-04-27T02:55:43.121Z,3.70
2019-04-27T02:58:12.990Z,4.90
2019-04-27T03:00:40.073Z,4.13
2019-04-27T03:03:10.279Z,4.33
2019-04-27T03:05:39.897Z,3.73
2019-04-27T03:08:06.759Z,4.57
2019-04-27T03:10:33.394Z,4.10
2019-04-27T03:13:02.098Z,4.67
2019-04-27T03:15:40.349Z,3.80
2019-04-27T03:18:11.051Z,4.43
2019-04-27T03:20:42.396Z,4.30
2019-04-27T03:23:10.774Z,4.30
2019-04-27T03:25:54.365Z,4.50
2019-04-27T03:28:21.381Z,4.00
2019-04-27T03:30:51.643Z,3.93
2019-04-27T03:33:16.834Z,4.43
2019-04-27T03:35:44.180Z,3.90
2019-04-27T03:38:12.500Z,4.13
2019-04-27T03:40:40.345Z,4.87
2019-04-27T03:43:11.701Z,4.03
2019-04-27T03:45:39.987Z,4.03
2019-04-27T03:48:06.804Z,4.40
2019-04-27T03:50:35.537Z,4.80
2019-04-27T03:53:10.440Z,4.57
2019-04-27T03:55:59.824Z,5.73
2019-04-27T03:58:34.623Z,5.00
2019-04-27T04:01:01.258Z,5.23
2019-04-27T04:03:29.707Z,5.70
2019-04-27T04:05:56.620Z,6.27
2019-04-27T04:08:23.360Z,6.27
2019-04-27T04:10:55.103Z,6.23
2019-04-27T04:13:35.637Z,7.30
2019-04-27T04:16:22.823Z,6.23
2019-04-27T04:19:03.882Z,7.07
2019-04-27T04:21:30.663Z,6.73
2019-04-27T04:23:57.483Z,7.43
2019-04-27T04:26:24.259Z,8.00
2019-04-27T04:28:50.972Z,6.30
2019-04-27T04:31:17.790Z,7.77
2019-04-27T04:33:44.772Z,6.83
2019-04-27T04:36:11.556Z,6.47
2019-04-27T04:38:40.191Z,7.73
2019-04-27T04:41:14.852Z,9.07
2019-04-27T04:43:43.349Z,7.07
2019-04-27T04:46:13.437Z,9.17
2019-04-27T04:48:40.585Z,9.27
2019-04-27T04:51:10.104Z,8.67
2019-04-27T04:53:37.102Z,9.67
2019-04-27T04:56:06.019Z,9.20
2019-04-27T04:58:33.323Z,9.13
2019-04-27T05:01:01.865Z,8.53
2019-04-27T05:03:28.846Z,9.90
2019-04-27T05:05:55.539Z,10.43
2019-04-27T05:08:22.141Z,10.13
2019-04-27T05:10:49.763Z,9.37
2019-04-27T05:13:16.515Z,10.00
2019-04-27T05:15:43.153Z,8.97
2019-04-27T05:18:10.705Z,10.50
2019-04-27T05:20:39.672Z,9.33
2019-04-27T05:23:06.969Z,10.13
2019-04-27T05:25:33.693Z,11.23
2019-04-27T05:28:00.377Z,9.03
2019-04-27T05:30:28.630Z,8.67
2019-04-27T05:32:55.458Z,7.67
2019-04-27T05:35:22.113Z,8.03
2019-04-27T05:37:49.898Z,8.77
2019-04-27T05:40:16.650Z,5.50
2019-04-27T05:42:43.399Z,6.07
2019-04-27T05:45:19.906Z,4.93
2019-04-27T05:47:51.872Z,4.67
2019-04-27T05:50:21.707Z,5.10
2019-04-27T05:52:46.107Z,5.27
2019-04-27T05:55:13.508Z,6.67
2019-04-27T05:57:40.248Z,6.43
2019-04-27T06:00:09.157Z,6.83
2019-04-27T06:02:36.166Z,6.80
2019-04-27T06:05:05.061Z,6.93
2019-04-27T06:07:31.708Z,5.40
2019-04-27T06:09:59.793Z,6.13
2019-04-27T06:12:27.182Z,4.87
2019-04-27T06:14:53.884Z,5.17
2019-04-27T06:17:20.522Z,5.63
2019-04-27T06:19:47.172Z,5.47
2019-04-27T06:22:14.604Z,3.77
2019-04-27T06:24:41.231Z,4.10
2019-04-27T06:27:09.415Z,4.33
2019-04-27T06:29:36.278Z,5.43
2019-04-27T06:32:03.325Z,5.40
2019-04-27T06:34:30.973Z,5.00
2019-04-27T06:36:59.767Z,4.70
2019-04-27T06:39:26.698Z,5.10
2019-04-27T06:41:53.479Z,4.37
2019-04-27T06:44:20.121Z,5.37
2019-04-27T06:46:46.752Z,5.33
2019-04-27T06:49:13.534Z,4.73
2019-04-27T06:51:40.380Z,5.33
2019-04-27T06:54:09.065Z,4.67
2019-04-27T06:56:35.918Z,3.93
2019-04-27T06:59:03.645Z,4.60
2019-04-27T07:01:30.376Z,4.10
2019-04-27T07:03:56.979Z,4.00
2019-04-27T07:06:23.725Z,5.50
2019-04-27T07:08:50.345Z,5.83
2019-04-27T07:11:19.716Z,4.73
2019-04-27T07:13:46.630Z,4.70
2019-04-27T07:16:13.292Z,4.70
2019-04-27T07:18:39.917Z,6.97
2019-04-27T07:21:16.925Z,4.63
2019-04-27T07:23:38.765Z,4.47
2019-04-27T07:26:05.454Z,5.10
2019-04-27T07:28:32.212Z,4.40
2019-04-27T07:30:59.206Z,5.43
2019-04-27T07:33:25.916Z,5.10
2019-04-27T07:35:52.538Z,4.17
2019-04-27T07:38:19.309Z,4.40
2019-04-27T07:40:48.741Z,4.53
2019-04-27T07:43:26.515Z,4.37
2019-04-27T07:45:53.154Z,5.57
2019-04-27T07:48:19.988Z,5.43
2019-04-27T07:50:48.218Z,4.20
2019-04-27T07:53:15.217Z,5.90
2019-04-27T07:55:43.805Z,4.60
2019-04-27T07:58:10.796Z,6.90
2019-04-27T08:00:39.484Z,6.70
2019-04-27T08:03:06.546Z,5.10
2019-04-27T08:05:33.373Z,6.10
2019-04-27T08:08:00.303Z,9.77
2019-04-27T08:10:26.981Z,4.63
2019-04-27T08:12:53.724Z,4.47
2019-04-27T08:15:20.587Z,4.10
2019-04-27T08:17:49.084Z,3.93
2019-04-27T08:20:16.000Z,4.20
2019-04-27T08:22:42.549Z,6.73
2019-04-27T08:25:10.042Z,6.27
2019-04-27T08:27:44.799Z,4.67
2019-04-27T08:30:16.799Z,7.53
2019-04-27T08:32:49.698Z,4.23
2019-04-27T08:35:16.794Z,5.20
2019-04-27T08:37:43.333Z,5.50
2019-04-27T08:40:11.090Z,4.30
2019-04-27T08:42:39.164Z,4.27
2019-04-27T08:45:06.886Z,4.13
2019-04-27T08:47:33.824Z,4.93
2019-04-27T08:50:00.749Z,3.90
2019-04-27T08:52:28.951Z,3.30
2019-04-27T08:54:56.004Z,4.23
2019-04-27T08:57:22.563Z,4.27
2019-04-27T08:59:51.095Z,4.10
2019-04-27T09:02:20.321Z,4.13
2019-04-27T09:04:49.336Z,3.07
2019-04-27T09:07:37.744Z,4.30
2019-04-27T09:10:18.924Z,3.13
2019-04-27T09:13:08.874Z,4.67
2019-04-27T09:15:46.894Z,4.23
2019-04-27T09:18:15.778Z,4.67
2019-04-27T09:20:50.434Z,5.07
2019-04-27T09:23:18.657Z,4.40
2019-04-27T09:25:45.653Z,3.80
2019-04-27T09:28:13.340Z,4.70
2019-04-27T09:30:39.962Z,3.83
2019-04-27T09:33:06.776Z,4.67
2019-04-27T09:35:40.853Z,3.77
2019-04-27T09:38:18.552Z,4.13
2019-04-27T09:40:46.604Z,3.73
2019-04-27T09:43:13.565Z,3.27
2019-04-27T09:45:40.213Z,3.90
2019-04-27T09:48:06.965Z,5.33
2019-04-27T09:50:35.930Z,3.30
2019-04-27T09:53:02.256Z,2.77
2019-04-27T09:55:28.913Z,3.37
2019-04-27T09:58:11.416Z,2.33
2019-04-27T10:00:40.019Z,2.70
2019-04-27T10:03:06.893Z,4.13
2019-04-27T10:05:37.389Z,3.63
2019-04-27T10:08:06.061Z,2.73
2019-04-27T10:10:33.005Z,4.53
2019-04-27T10:12:59.821Z,3.83
2019-04-27T10:15:31.392Z,4.63
2019-04-27T10:18:01.053Z,3.30
2019-04-27T10:20:31.675Z,3.77
2019-04-27T10:23:00.617Z,3.63
2019-04-27T10:25:28.691Z,3.90
2019-04-27T10:27:58.072Z,2.80
2019-04-27T10:30:25.770Z,3.77
2019-04-27T10:32:52.930Z,4.20
2019-04-27T10:35:26.573Z,3.80
2019-04-27T10:37:53.202Z,4.63
2019-04-27T10:40:19.843Z,2.60
2019-04-27T10:42:46.482Z,1.93
2019-04-27T10:45:15.222Z,2.30
2019-04-27T10:47:42.135Z,2.20
2019-04-27T10:50:08.957Z,2.57
2019-04-27T10:52:35.585Z,2.97
2019-04-27T10:55:02.804Z,2.73
2019-04-27T10:57:30.627Z,3.70
2019-04-27T10:59:59.153Z,6.97
2019-04-27T11:02:25.771Z,1.93
2019-04-27T11:04:54.316Z,2.70
2019-04-27T11:07:26.030Z,2.93
2019-04-27T11:09:52.994Z,2.33
2019-04-27T11:12:19.941Z,2.20
2019-04-27T11:14:46.651Z,2.60
2019-04-27T11:17:13.298Z,2.60
2019-04-27T11:19:40.376Z,2.27
2019-04-27T11:22:07.516Z,2.83
2019-04-27T11:24:34.336Z,3.57
2019-04-27T11:27:01.387Z,4.13
2019-04-27T11:29:28.110Z,3.40
2019-04-27T11:31:55.643Z,3.87
2019-04-27T11:34:24.687Z,3.20
2019-04-27T11:36:59.074Z,3.33
2019-04-27T11:39:27.127Z,4.30
2019-04-27T11:41:53.945Z,3.53
2019-04-27T11:44:21.269Z,4.03
2019-04-27T11:46:48.023Z,3.90
2019-04-27T11:49:15.600Z,4.53
2019-04-27T11:51:42.503Z,4.40
2019-04-27T11:54:09.314Z,3.70
2019-04-27T11:56:38.231Z,3.83
2019-04-27T11:59:06.937Z,1.87
2019-04-27T12:01:33.795Z,2.33
2019-04-27T12:04:00.506Z,2.33
2019-04-27T12:06:27.324Z,2.47
2019-04-27T12:08:54.076Z,2.30
2019-04-27T12:11:20.941Z,2.57
2019-04-27T12:13:47.562Z,3.67
2019-04-27T12:16:15.597Z,3.77
2019-04-27T12:18:42.729Z,3.57
2019-04-27T12:21:09.385Z,4.33
2019-04-27T12:23:42.637Z,3.87
2019-04-27T12:26:11.448Z,4.43
2019-04-27T12:28:40.526Z,3.77
2019-04-27T12:31:12.117Z,3.43
2019-04-27T12:33:39.185Z,3.90
2019-04-27T12:36:06.803Z,4.33
2019-04-27T12:38:33.644Z,5.10
2019-04-27T12:41:01.014Z,4.13
2019-04-27T12:43:27.778Z,5.07
2019-04-27T12:45:55.930Z,3.77
2019-04-27T12:48:22.966Z,4.70
2019-04-27T12:50:49.792Z,3.63
2019-04-27T12:53:18.692Z,5.10
2019-04-27T12:55:53.318Z,4.10
2019-04-27T12:58:22.228Z,4.60
2019-04-27T13:00:51.887Z,4.50
2019-04-27T13:03:18.602Z,5.87
2019-04-27T13:05:45.526Z,5.07
2019-04-27T13:08:12.305Z,5.20
2019-04-27T13:10:39.069Z,5.37
2019-04-27T13:13:06.377Z,7.10
2019-04-27T13:15:33.224Z,6.73
2019-04-27T13:18:00.130Z,6.17
2019-04-27T13:20:27.399Z,7.23
2019-04-27T13:22:54.202Z,7.60
2019-04-27T13:25:20.934Z,5.93
2019-04-27T13:27:48.719Z,5.37
2019-04-27T13:30:20.482Z,5.27
2019-04-27T13:32:48.240Z,5.20
2019-04-27T13:35:15.837Z,4.77
2019-04-27T13:37:43.381Z,4.10
2019-04-27T13:40:12.620Z,4.20
2019-04-27T13:42:44.488Z,3.50
2019-04-27T13:45:28.590Z,3.27
2019-04-27T13:48:03.616Z,3.63
2019-04-27T13:50:33.268Z,3.13
2019-04-27T13:53:02.915Z,3.13
2019-04-27T13:55:29.890Z,3.40
2019-04-27T13:57:56.647Z,3.47
2019-04-27T14:00:23.608Z,3.47
2019-04-27T14:02:50.576Z,5.00
2019-04-27T14:05:17.384Z,4.80
2019-04-27T14:07:46.050Z,5.00
2019-04-27T14:10:12.982Z,3.70
2019-04-27T14:12:39.796Z,3.43
2019-04-27T14:15:08.634Z,3.67
2019-04-27T14:17:39.074Z,4.17
2019-04-27T14:20:07.898Z,4.23
2019-04-27T14:22:35.332Z,4.33
2019-04-27T14:25:02.790Z,2.73
2019-04-27T14:27:32.436Z,4.70
2019-04-27T14:29:59.549Z,5.43
2019-04-27T14:32:26.466Z,8.07
2019-04-27T14:34:53.108Z,4.03
2019-04-27T14:37:19.795Z,3.23
2019-04-27T14:39:46.488Z,5.73
2019-04-27T14:42:14.274Z,5.93
2019-04-27T14:44:41.104Z,5.03
2019-04-27T14:47:08.168Z,4.90
2019-04-27T14:49:36.786Z,5.70
2019-04-27T14:52:03.710Z,4.83
2019-04-27T14:54:45.121Z,4.47
2019-04-27T14:56:59.015Z,5.53
2019-04-27T14:59:25.710Z,3.67
2019-04-27T15:01:52.504Z,3.57
2019-04-27T15:04:19.280Z,3.83
2019-04-27T15:06:46.116Z,3.87
2019-04-27T15:09:13.466Z,5.23
2019-04-27T15:11:41.452Z,4.47
2019-04-27T15:14:09.100Z,5.20
2019-04-27T15:16:37.939Z,6.17
2019-04-27T15:19:06.717Z,5.33
2019-04-27T15:21:38.273Z,6.37
2019-04-27T15:24:09.332Z,6.53
2019-04-27T15:26:31.766Z,5.10
2019-04-27T15:29:03.766Z,7.30
2019-04-27T15:31:42.318Z,5.30
2019-04-27T15:34:11.272Z,5.20
2019-04-27T15:36:45.863Z,5.73
2019-04-27T15:39:30.878Z,5.40
2019-04-27T15:42:07.891Z,5.03
2019-04-27T15:44:30.799Z,5.43
2019-04-27T15:46:59.434Z,6.67
2019-04-27T15:49:26.162Z,7.00
2019-04-27T15:51:54.789Z,5.50
2019-04-27T15:54:22.304Z,5.93
2019-04-27T15:56:49.901Z,6.90
2019-04-27T15:59:18.344Z,5.20
2019-04-27T16:01:44.993Z,5.57
2019-04-27T16:04:11.821Z,5.47
2019-04-27T16:06:38.632Z,6.73
2019-04-27T16:09:10.035Z,5.53
2019-04-27T16:11:36.956Z,5.93
2019-04-27T16:14:06.675Z,6.47
2019-04-27T16:16:33.548Z,5.57
2019-04-27T16:19:03.667Z,5.73
2019-04-27T16:21:31.434Z,5.83
2019-04-27T16:23:58.168Z,4.87
2019-04-27T16:26:25.149Z,5.97
2019-04-27T16:28:53.461Z,4.87
2019-04-27T16:31:20.591Z,7.90
2019-04-27T16:33:49.381Z,5.97
2019-04-27T16:36:17.370Z,6.30
2019-04-27T16:38:55.166Z,6.47
2019-04-27T16:41:21.878Z,6.37
2019-04-27T16:43:49.633Z,7.13
2019-04-27T16:46:16.483Z,14.43
2019-04-27T16:48:43.743Z,14.27
2019-04-27T16:51:13.342Z,7.00
2019-04-27T16:53:41.264Z,5.37
2019-04-27T16:56:14.680Z,5.10
2019-04-27T16:58:39.449Z,5.27
2019-04-27T17:01:10.825Z,5.87
2019-04-27T17:03:41.449Z,5.40
2019-04-27T17:06:09.636Z,5.43
2019-04-27T17:08:36.477Z,6.47
2019-04-27T17:11:08.379Z,6.27
2019-04-27T17:13:33.974Z,6.53
2019-04-27T17:16:02.672Z,5.93
2019-04-27T17:18:31.223Z,5.33
2019-04-27T17:21:02.649Z,4.80
2019-04-27T17:23:29.067Z,5.63
2019-04-27T17:26:05.977Z,5.20
2019-04-27T17:28:29.289Z,4.47
2019-04-27T17:30:58.283Z,4.07
2019-04-27T17:33:30.211Z,5.70
2019-04-27T17:35:57.683Z,5.67
2019-04-27T17:38:25.710Z,4.87
2019-04-27T17:40:52.733Z,5.13
2019-04-27T17:43:19.351Z,4.57
2019-04-27T17:45:48.611Z,4.30
2019-04-27T17:48:15.729Z,4.33
2019-04-27T17:50:43.534Z,4.47
2019-04-27T17:53:10.265Z,4.50
2019-04-27T17:55:38.095Z,6.83
2019-04-27T17:58:06.521Z,17.57
2019-04-27T18:00:41.661Z,5.60
2019-04-27T18:03:04.709Z,3.90
2019-04-27T18:05:31.655Z,4.90
2019-04-27T18:07:58.758Z,4.37
2019-04-27T18:10:25.737Z,5.47
2019-04-27T18:12:52.617Z,5.87
2019-04-27T18:15:20.150Z,5.13
2019-04-27T18:17:52.053Z,4.90
2019-04-27T18:20:25.389Z,4.80
2019-04-27T18:23:00.351Z,12.10
2019-04-27T18:25:28.675Z,4.33
2019-04-27T18:28:00.163Z,5.73
2019-04-27T18:30:29.181Z,4.00
2019-04-27T18:32:59.216Z,5.27
2019-04-27T18:35:26.399Z,6.00
2019-04-27T18:37:58.369Z,4.80
2019-04-27T18:40:31.864Z,5.63
2019-04-27T18:42:53.201Z,5.27
2019-04-27T18:45:19.941Z,5.23
2019-04-27T18:47:48.584Z,6.67
2019-04-27T18:50:23.804Z,6.27
2019-04-27T18:52:55.722Z,4.10
2019-04-27T18:55:22.374Z,4.63
2019-04-27T18:57:50.981Z,3.93
2019-04-27T19:00:20.957Z,5.77
2019-04-27T19:02:50.054Z,5.77
2019-04-27T19:05:16.451Z,5.53
2019-04-27T19:07:43.083Z,6.07
2019-04-27T19:10:10.067Z,4.67
2019-04-27T19:12:39.147Z,4.93
2019-04-27T19:15:08.068Z,5.90
2019-04-27T19:17:35.302Z,10.70
2019-04-27T19:20:08.283Z,5.70
2019-04-27T19:22:34.822Z,5.33
2019-04-27T19:25:01.979Z,6.17
2019-04-27T19:27:33.358Z,6.83
2019-04-27T19:30:02.837Z,7.10
2019-04-27T19:32:30.095Z,5.77
2019-04-27T19:34:56.979Z,7.47
2019-04-27T19:37:23.779Z,5.60
2019-04-27T19:39:50.859Z,7.87
2019-04-27T19:42:20.346Z,5.73
2019-04-27T19:44:48.100Z,5.73
2019-04-27T19:47:15.262Z,8.77
2019-04-27T19:49:41.896Z,5.50
2019-04-27T19:52:09.832Z,5.27
2019-04-27T19:54:36.748Z,8.07
2019-04-27T19:57:03.428Z,6.10
2019-04-27T19:59:34.730Z,6.13
2019-04-27T20:02:03.603Z,9.60
2019-04-27T20:04:32.268Z,6.17
2019-04-27T20:07:00.174Z,5.37
2019-04-27T20:09:28.829Z,5.40
2019-04-27T20:12:00.825Z,6.93
2019-04-27T20:14:30.841Z,7.87
2019-04-27T20:16:57.608Z,5.83
2019-04-27T20:19:25.478Z,6.87
2019-04-27T20:21:52.238Z,8.00
2019-04-27T20:24:19.171Z,6.03
2019-04-27T20:26:45.818Z,6.63
2019-04-27T20:29:12.563Z,6.73
2019-04-27T20:31:40.941Z,6.50
2019-04-27T20:34:07.702Z,6.77
2019-04-27T20:36:34.408Z,6.73
2019-04-27T20:39:01.374Z,6.30
2019-04-27T20:41:28.785Z,6.13
2019-04-27T20:43:55.416Z,5.47
2019-04-27T20:46:22.760Z,5.70
2019-04-27T20:48:51.153Z,6.10
2019-04-27T20:51:21.279Z,6.63
2019-04-27T20:53:52.636Z,6.47
2019-04-27T20:56:21.917Z,5.40
2019-04-27T20:58:48.524Z,4.97
2019-04-27T21:01:15.320Z,6.17
2019-04-27T21:03:46.618Z,5.03
2019-04-27T21:06:21.306Z,5.23
2019-04-27T21:08:48.079Z,6.13
2019-04-27T21:11:16.685Z,6.30
2019-04-27T21:13:43.747Z,7.37
2019-04-27T21:16:10.713Z,5.97
2019-04-27T21:18:38.898Z,4.50
2019-04-27T21:21:05.588Z,6.80
2019-04-27T21:23:32.698Z,12.40
2019-04-27T21:25:59.322Z,6.47
2019-04-27T21:28:25.948Z,8.17
2019-04-27T21:30:53.039Z,5.90
2019-04-27T21:33:21.418Z,4.63
2019-04-27T21:35:51.010Z,5.53
2019-04-27T21:38:17.922Z,6.20
2019-04-27T21:40:45.555Z,4.73
2019-04-27T21:43:14.097Z,5.47
2019-04-27T21:45:42.033Z,8.97
2019-04-27T21:48:10.955Z,5.43
2019-04-27T21:50:37.941Z,6.50
2019-04-27T21:53:06.478Z,6.07
2019-04-27T21:55:35.051Z,5.47
2019-04-27T21:58:01.846Z,6.07
2019-04-27T22:00:42.802Z,5.37
2019-04-27T22:03:16.316Z,5.53
2019-04-27T22:05:44.390Z,7.80
2019-04-27T22:08:11.750Z,6.70
2019-04-27T22:10:38.856Z,7.53
2019-04-27T22:13:05.775Z,8.47
2019-04-27T22:15:33.504Z,6.90
2019-04-27T22:18:00.706Z,4.77
2019-04-27T22:20:32.403Z,7.37
2019-04-27T22:23:10.286Z,6.03
2019-04-27T22:25:38.203Z,6.40
2019-04-27T22:28:04.923Z,6.80
2019-04-27T22:30:31.601Z,5.90
2019-04-27T22:32:58.560Z,4.53
2019-04-27T22:35:25.472Z,5.87
2019-04-27T22:37:52.046Z,5.23
2019-04-27T22:40:32.684Z,5.83
2019-04-27T22:43:11.873Z,5.27
2019-04-27T22:45:46.147Z,5.10
2019-04-27T22:48:12.888Z,6.87
2019-04-27T22:50:41.284Z,5.47
2019-04-27T22:53:08.501Z,5.23
2019-04-27T22:55:37.322Z,5.03
2019-04-27T22:58:08.679Z,5.77
2019-04-27T23:00:41.212Z,4.90
2019-04-27T23:03:10.974Z,6.53
2019-04-27T23:05:37.868Z,5.87
2019-04-27T23:08:04.816Z,5.90
2019-04-27T23:10:31.637Z,7.57
2019-04-27T23:12:58.306Z,6.40
2019-04-27T23:15:27.082Z,6.90
2019-04-27T23:17:54.509Z,5.67
2019-04-27T23:20:21.473Z,5.30
2019-04-27T23:22:48.087Z,5.53
2019-04-27T23:25:14.793Z,7.27
2019-04-27T23:27:41.756Z,5.30
2019-04-27T23:30:11.350Z,5.50
2019-04-27T23:32:45.882Z,4.50
2019-04-27T23:35:13.696Z,5.80
2019-04-27T23:37:40.512Z,6.13
2019-04-27T23:40:08.107Z,4.57
2019-04-27T23:42:34.710Z,4.77
2019-04-27T23:45:01.437Z,5.10
2019-04-27T23:47:29.704Z,4.20
2019-04-27T23:49:56.796Z,5.07
2019-04-27T23:52:25.866Z,6.23
2019-04-27T23:54:52.712Z,5.00
2019-04-27T23:57:19.354Z,4.77
2019-04-27T23:59:45.876Z,23.70
